createdAt,value
2019-04-25T00:01:08.391Z,24.92
2019-04-25T00:03:39.088Z,23.03
2019-04-25T00:06:07.385Z,23.63
2019-04-25T00:08:35.674Z,23.77
2019-04-25T00:11:03.721Z,25.90
2019-04-25T00:13:32.137Z,33.60
2019-04-25T00:16:01.718Z,24.70
2019-04-25T00:18:31.791Z,25.40
2019-04-25T00:21:03.875Z,30.67
2019-04-25T00:23:32.275Z,27.03
2019-04-25T00:26:19.346Z,26.07
2019-04-25T00:28:47.346Z,26.93
2019-04-25T00:31:15.927Z,27.63
2019-04-25T00:33:44.984Z,26.07
2019-04-25T00:36:14.037Z,28.30
2019-04-25T00:38:46.414Z,30.00
2019-04-25T00:41:13.035Z,29.73
2019-04-25T00:43:42.229Z,29.13
2019-04-25T00:46:11.437Z,29.90
2019-04-25T00:48:42.378Z,29.43
2019-04-25T00:51:11.760Z,31.07
2019-04-25T00:53:41.804Z,30.60
2019-04-25T00:56:11.209Z,33.13
2019-04-25T00:58:46.766Z,31.70
2019-04-25T01:01:53.261Z,32.20
2019-04-25T01:04:23.683Z,29.90
2019-04-25T01:06:52.803Z,32.80
2019-04-25T01:09:22.844Z,34.00
2019-04-25T01:11:52.327Z,32.93
2019-04-25T01:14:21.801Z,32.40
2019-04-25T01:16:50.689Z,32.57
2019-04-25T01:19:19.747Z,31.93
2019-04-25T01:21:47.818Z,30.57
2019-04-25T01:24:15.901Z,29.70
2019-04-25T01:26:44.121Z,30.87
2019-04-25T01:29:13.595Z,29.80
2019-04-25T01:31:43.377Z,31.00
2019-04-25T01:34:14.128Z,27.90
2019-04-25T01:36:50.699Z,32.70
2019-04-25T01:39:31.592Z,31.17
2019-04-25T01:42:07.071Z,34.97
2019-04-25T01:44:38.825Z,33.70
2019-04-25T01:47:06.929Z,35.57
2019-04-25T01:49:35.094Z,31.50
2019-04-25T01:52:03.776Z,32.33
2019-04-25T01:54:33.820Z,31.03
2019-04-25T01:57:01.949Z,33.27
2019-04-25T01:59:30.181Z,34.87
2019-04-25T02:01:58.853Z,32.83
2019-04-25T02:04:27.126Z,30.93
2019-04-25T02:06:57.464Z,28.27
2019-04-25T02:09:26.159Z,31.93
2019-04-25T02:12:10.849Z,29.70
2019-04-25T02:14:38.989Z,27.83
2019-04-25T02:17:07.016Z,27.50
2019-04-25T02:19:35.754Z,25.90
2019-04-25T02:22:04.098Z,25.60
2019-04-25T02:24:33.759Z,27.03
2019-04-25T02:27:03.759Z,24.53
2019-04-25T02:29:33.153Z,24.40
2019-04-25T02:32:06.046Z,25.53
2019-04-25T02:34:31.093Z,24.90
2019-04-25T02:37:03.193Z,24.77
2019-04-25T02:39:29.667Z,24.87
2019-04-25T02:42:00.525Z,24.57
2019-04-25T02:44:27.476Z,25.17
2019-04-25T02:47:08.116Z,26.80
2019-04-25T02:49:55.823Z,25.00
2019-04-25T02:52:30.101Z,24.33
2019-04-25T02:54:59.051Z,23.70
2019-04-25T02:57:27.867Z,26.63
2019-04-25T02:59:57.114Z,22.40
2019-04-25T03:02:25.696Z,22.47
2019-04-25T03:04:54.577Z,22.50
2019-04-25T03:07:24.557Z,16.70
2019-04-25T03:09:54.627Z,15.37
2019-04-25T03:12:30.624Z,13.53
2019-04-25T03:14:54.306Z,14.00
2019-04-25T03:17:24.631Z,12.97
2019-04-25T03:20:20.631Z,11.93
2019-04-25T03:22:48.868Z,11.00
2019-04-25T03:25:17.712Z,10.03
2019-04-25T03:27:46.129Z,11.03
2019-04-25T03:30:17.614Z,7.67
2019-04-25T03:32:45.402Z,8.57
2019-04-25T03:35:14.514Z,8.77
2019-04-25T03:37:43.617Z,6.77
2019-04-25T03:40:13.435Z,6.97
2019-04-25T03:42:41.589Z,6.30
2019-04-25T03:45:09.678Z,10.70
2019-04-25T03:47:37.863Z,8.27
2019-04-25T03:50:07.288Z,7.03
2019-04-25T03:52:36.041Z,8.30
2019-04-25T03:55:05.121Z,9.83
2019-04-25T03:57:34.018Z,7.27
2019-04-25T04:00:03.611Z,10.70
2019-04-25T04:02:31.957Z,10.13
2019-04-25T04:05:00.072Z,6.80
2019-04-25T04:07:28.313Z,10.80
2019-04-25T04:09:56.436Z,15.03
2019-04-25T04:12:24.525Z,10.10
2019-04-25T04:14:53.769Z,8.47
2019-04-25T04:17:41.116Z,15.17
2019-04-25T04:20:26.992Z,9.27
2019-04-25T04:23:05.691Z,10.03
2019-04-25T04:25:34.155Z,7.50
2019-04-25T04:28:03.722Z,10.77
2019-04-25T04:30:33.839Z,13.70
2019-04-25T04:33:03.208Z,10.13
2019-04-25T04:35:33.535Z,8.83
2019-04-25T04:38:04.176Z,10.30
2019-04-25T04:40:34.362Z,8.97
2019-04-25T04:43:02.177Z,6.53
2019-04-25T04:45:30.282Z,10.00
2019-04-25T04:47:58.419Z,7.90
2019-04-25T04:50:26.547Z,8.97
2019-04-25T04:52:54.618Z,7.40
2019-04-25T04:55:23.213Z,9.80
2019-04-25T04:57:51.306Z,4.47
2019-04-25T05:00:19.492Z,8.20
2019-04-25T05:03:10.478Z,7.57
2019-04-25T05:05:57.209Z,4.03
2019-04-25T05:08:33.988Z,6.00
2019-04-25T05:11:02.097Z,5.90
2019-04-25T05:13:30.117Z,3.10
2019-04-25T05:15:58.227Z,4.93
2019-04-25T05:18:37.521Z,1.90
2019-04-25T05:20:57.109Z,4.37
2019-04-25T05:23:25.194Z,4.47
2019-04-25T05:25:54.184Z,3.03
2019-04-25T05:28:24.399Z,8.47
2019-04-25T05:31:30.104Z,7.50
2019-04-25T05:34:00.033Z,2.43
2019-04-25T05:36:37.756Z,3.23
2019-04-25T05:39:07.179Z,4.07
2019-04-25T05:42:00.052Z,2.87
2019-04-25T05:44:28.222Z,2.90
2019-04-25T05:46:56.238Z,4.77
2019-04-25T05:49:26.371Z,6.00
2019-04-25T05:51:54.567Z,7.67
2019-04-25T05:54:24.168Z,4.67
2019-04-25T05:56:53.666Z,4.20
2019-04-25T05:59:22.060Z,4.07
2019-04-25T06:01:50.388Z,3.30
2019-04-25T06:04:19.070Z,4.43
2019-04-25T06:06:47.293Z,5.60
2019-04-25T06:09:26.393Z,5.67
2019-04-25T06:12:06.793Z,8.10
2019-04-25T06:14:35.893Z,3.37
2019-04-25T06:17:07.251Z,3.53
2019-04-25T06:22:24.210Z,4.33
2019-04-25T06:24:59.189Z,5.93
2019-04-25T06:27:35.211Z,7.13
2019-04-25T06:30:25.969Z,5.37
2019-04-25T06:32:55.854Z,2.10
2019-04-25T06:35:25.151Z,5.30
2019-04-25T06:37:54.036Z,3.47
2019-04-25T06:40:23.832Z,3.50
2019-04-25T06:42:54.936Z,2.07
2019-04-25T06:45:40.471Z,1.57
2019-04-25T06:48:33.565Z,1.80
2019-04-25T06:51:00.464Z,2.30
2019-04-25T06:53:30.551Z,2.27
2019-04-25T06:55:58.265Z,2.27
2019-04-25T06:58:27.567Z,2.90
2019-04-25T07:01:00.581Z,3.03
2019-04-25T07:03:27.514Z,1.90
2019-04-25T07:05:55.772Z,4.03
2019-04-25T07:08:25.753Z,3.00
2019-04-25T07:10:59.268Z,5.53
2019-04-25T07:13:28.362Z,2.23
2019-04-25T07:15:56.741Z,1.83
2019-04-25T07:18:30.256Z,2.83
2019-04-25T07:20:54.691Z,3.73
2019-04-25T07:23:25.446Z,1.50
2019-04-25T07:26:13.512Z,1.53
2019-04-25T07:28:56.435Z,5.70
2019-04-25T07:31:47.170Z,2.70
2019-04-25T07:34:20.903Z,2.37
2019-04-25T07:36:50.878Z,1.87
2019-04-25T07:39:19.007Z,3.53
2019-04-25T07:41:47.107Z,2.80
2019-04-25T07:44:15.377Z,1.67
2019-04-25T07:46:43.621Z,3.30
2019-04-25T07:49:13.324Z,1.77
2019-04-25T07:51:43.206Z,1.40
2019-04-25T07:54:15.998Z,1.03
2019-04-25T07:56:43.945Z,1.33
2019-04-25T07:59:15.623Z,3.27
2019-04-25T08:01:43.784Z,3.67
2019-04-25T08:04:13.632Z,2.40
2019-04-25T08:06:44.500Z,3.03
2019-04-25T08:09:14.240Z,3.53
2019-04-25T08:11:44.893Z,1.80
2019-04-25T08:14:28.472Z,2.73
2019-04-25T08:16:58.440Z,8.10
2019-04-25T08:19:26.728Z,3.67
2019-04-25T08:21:55.437Z,4.97
2019-04-25T08:24:24.003Z,4.43
2019-04-25T08:26:53.438Z,2.43
2019-04-25T08:29:23.686Z,4.00
2019-04-25T08:31:53.530Z,2.47
2019-04-25T08:34:21.740Z,1.93
2019-04-25T08:36:49.817Z,1.97
2019-04-25T08:39:17.862Z,1.97
2019-04-25T08:41:45.913Z,3.97
2019-04-25T08:44:14.239Z,1.20
2019-04-25T08:46:44.223Z,2.70
2019-04-25T08:49:45.878Z,2.77
2019-04-25T08:52:14.387Z,3.30
2019-04-25T08:55:05.370Z,2.33
2019-04-25T08:58:07.819Z,2.23
2019-04-25T09:01:01.532Z,2.40
2019-04-25T09:03:38.214Z,2.70
2019-04-25T09:06:06.248Z,1.10
2019-04-25T09:08:38.121Z,2.00
2019-04-25T09:11:07.055Z,1.87
2019-04-25T09:13:35.838Z,1.63
2019-04-25T09:16:05.020Z,4.23
2019-04-25T09:18:34.971Z,6.53
2019-04-25T09:21:03.933Z,7.57
2019-04-25T09:23:34.426Z,2.93
2019-04-25T09:26:02.048Z,2.60
2019-04-25T09:28:30.083Z,2.17
2019-04-25T09:30:58.792Z,0.90
2019-04-25T09:33:26.876Z,3.93
2019-04-25T09:35:56.768Z,3.57
2019-04-25T09:38:24.847Z,3.87
2019-04-25T09:40:54.137Z,1.30
2019-04-25T09:43:23.493Z,2.20
2019-04-25T09:46:16.578Z,4.43
2019-04-25T09:49:16.058Z,2.20
2019-04-25T09:52:03.413Z,2.37
2019-04-25T09:55:03.487Z,3.87
2019-04-25T09:57:59.881Z,2.20
2019-04-25T10:00:33.492Z,1.67
2019-04-25T10:03:01.881Z,3.23
2019-04-25T10:05:30.047Z,1.67
2019-04-25T10:07:58.081Z,1.57
2019-04-25T10:10:26.153Z,3.63
2019-04-25T10:12:54.901Z,1.10
2019-04-25T10:15:52.346Z,3.07
2019-04-25T10:18:21.341Z,5.17
2019-04-25T10:20:49.722Z,3.93
2019-04-25T10:23:18.090Z,2.37
2019-04-25T10:25:46.534Z,4.93
2019-04-25T10:28:14.639Z,1.13
2019-04-25T10:30:42.982Z,2.20
2019-04-25T10:33:11.085Z,3.47
2019-04-25T10:35:48.030Z,3.52
2019-04-25T10:38:09.910Z,2.27
2019-04-25T10:40:38.359Z,3.77
2019-04-25T10:43:07.866Z,4.00
2019-04-25T10:45:37.587Z,2.30
2019-04-25T10:48:05.870Z,1.40
2019-04-25T10:50:34.153Z,2.13
2019-04-25T10:53:03.943Z,4.63
2019-04-25T10:55:32.355Z,2.93
2019-04-25T10:58:00.512Z,4.40
2019-04-25T11:00:40.580Z,1.33
2019-04-25T11:03:26.483Z,4.53
2019-04-25T11:05:55.971Z,2.00
2019-04-25T11:08:24.635Z,1.60
2019-04-25T11:10:54.584Z,3.47
2019-04-25T11:13:23.108Z,1.93
2019-04-25T11:15:51.996Z,2.40
2019-04-25T11:18:20.351Z,1.43
2019-04-25T11:20:48.355Z,2.30
2019-04-25T11:23:16.464Z,2.43
2019-04-25T11:25:45.285Z,2.63
2019-04-25T11:28:14.462Z,1.93
2019-04-25T11:30:44.040Z,3.07
2019-04-25T11:33:14.307Z,3.63
2019-04-25T11:35:42.433Z,2.07
2019-04-25T11:38:13.779Z,2.73
2019-04-25T11:40:55.048Z,4.63
2019-04-25T11:43:23.425Z,1.50
2019-04-25T11:45:53.778Z,1.83
2019-04-25T11:48:24.511Z,2.90
2019-04-25T11:50:55.655Z,3.67
2019-04-25T11:53:25.032Z,1.33
2019-04-25T11:55:53.750Z,3.47
2019-04-25T11:58:23.620Z,4.03
2019-04-25T12:00:53.462Z,1.33
2019-04-25T12:03:22.985Z,1.00
2019-04-25T12:05:53.146Z,1.30
2019-04-25T12:08:21.849Z,4.00
2019-04-25T12:10:50.044Z,2.80
2019-04-25T12:13:18.222Z,2.77
2019-04-25T12:15:47.104Z,1.90
2019-04-25T12:18:15.282Z,5.47
2019-04-25T12:20:44.699Z,2.07
2019-04-25T12:23:14.407Z,1.23
2019-04-25T12:25:44.286Z,1.63
2019-04-25T12:28:14.163Z,4.77
2019-04-25T12:30:43.955Z,1.73
2019-04-25T12:33:20.929Z,2.63
2019-04-25T12:35:43.777Z,1.53
2019-04-25T12:38:12.101Z,1.33
2019-04-25T12:40:40.266Z,1.57
2019-04-25T12:43:08.593Z,3.40
2019-04-25T12:45:58.883Z,3.60
2019-04-25T12:48:27.928Z,1.30
2019-04-25T12:50:56.712Z,1.87
2019-04-25T12:53:25.062Z,2.53
2019-04-25T12:55:53.771Z,1.93
2019-04-25T12:58:24.206Z,2.77
2019-04-25T13:00:57.194Z,1.30
2019-04-25T13:03:24.133Z,2.53
2019-04-25T13:05:52.583Z,1.67
2019-04-25T13:08:20.743Z,0.90
2019-04-25T13:10:50.581Z,1.43
2019-04-25T13:13:18.768Z,1.13
2019-04-25T13:15:46.806Z,1.33
2019-04-25T13:18:14.977Z,2.20
2019-04-25T13:20:43.141Z,1.63
2019-04-25T13:23:11.577Z,1.37
2019-04-25T13:25:39.938Z,4.10
2019-04-25T13:28:25.901Z,1.60
2019-04-25T13:31:28.365Z,0.83
2019-04-25T13:34:05.899Z,1.00
2019-04-25T13:36:34.732Z,1.83
2019-04-25T13:39:04.338Z,6.17
2019-04-25T13:41:33.167Z,4.30
2019-04-25T13:44:01.361Z,1.10
2019-04-25T13:46:29.425Z,1.20
2019-04-25T13:48:59.357Z,2.00
2019-04-25T13:51:29.124Z,1.83
2019-04-25T13:53:57.219Z,2.37
2019-04-25T13:56:27.140Z,2.33
2019-04-25T13:58:55.275Z,2.10
2019-04-25T14:01:27.638Z,0.70
2019-04-25T14:03:55.883Z,1.33
2019-04-25T14:06:24.269Z,0.73
2019-04-25T14:08:53.433Z,2.13
2019-04-25T14:11:24.187Z,4.20
2019-04-25T14:13:52.586Z,0.90
2019-04-25T14:16:43.509Z,1.10
2019-04-25T14:19:36.736Z,1.23
2019-04-25T14:22:05.610Z,2.13
2019-04-25T14:24:35.695Z,1.23
2019-04-25T14:27:03.782Z,1.73
2019-04-25T14:29:31.924Z,0.73
2019-04-25T14:32:00.239Z,2.30
2019-04-25T14:34:29.859Z,1.13
2019-04-25T14:36:58.020Z,1.30
2019-04-25T14:39:26.211Z,0.90
2019-04-25T14:41:55.590Z,0.67
2019-04-25T14:44:23.826Z,1.83
2019-04-25T14:46:54.675Z,1.73
2019-04-25T14:49:22.817Z,5.10
2019-04-25T14:51:50.868Z,4.97
2019-04-25T14:54:35.999Z,1.73
2019-04-25T14:57:07.512Z,3.03
2019-04-25T14:59:35.686Z,1.63
2019-04-25T15:02:04.037Z,1.13
2019-04-25T15:04:33.168Z,1.77
2019-04-25T15:07:01.698Z,0.60
2019-04-25T15:09:29.975Z,1.70
2019-04-25T15:11:58.031Z,0.87
2019-04-25T15:14:26.930Z,0.80
2019-04-25T15:16:55.075Z,0.77
2019-04-25T15:19:24.063Z,5.40
2019-04-25T15:21:54.256Z,0.87
2019-04-25T15:24:22.976Z,6.13
2019-04-25T15:26:52.153Z,1.83
2019-04-25T15:29:20.202Z,1.00
2019-04-25T15:31:55.734Z,3.57
2019-04-25T15:34:18.490Z,0.47
2019-04-25T15:36:55.579Z,2.33
2019-04-25T15:39:40.532Z,1.90
2019-04-25T15:42:27.643Z,2.13
2019-04-25T15:45:17.844Z,2.40
2019-04-25T15:47:46.051Z,2.90
2019-04-25T15:50:14.497Z,2.40
2019-04-25T15:52:45.006Z,0.90
2019-04-25T15:55:13.378Z,4.27
2019-04-25T15:57:43.140Z,1.60
2019-04-25T16:00:17.167Z,2.90
2019-04-25T16:02:46.696Z,2.53
2019-04-25T16:05:14.919Z,3.10
2019-04-25T16:07:44.270Z,3.50
2019-04-25T16:10:12.615Z,3.07
2019-04-25T16:12:40.712Z,2.20
2019-04-25T16:15:08.829Z,0.77
2019-04-25T16:17:37.217Z,2.53
2019-04-25T16:20:05.543Z,0.80
2019-04-25T16:22:35.385Z,1.90
2019-04-25T16:25:03.772Z,0.80
2019-04-25T16:27:32.588Z,2.47
2019-04-25T16:30:00.875Z,2.63
2019-04-25T16:32:30.502Z,2.00
2019-04-25T16:34:58.741Z,0.83
2019-04-25T16:37:27.944Z,2.37
2019-04-25T16:39:57.046Z,2.43
2019-04-25T16:42:25.259Z,1.63
2019-04-25T16:44:53.505Z,2.47
2019-04-25T16:47:23.608Z,3.00
2019-04-25T16:49:51.911Z,3.03
2019-04-25T16:52:20.073Z,3.83
2019-04-25T16:54:48.351Z,1.03
2019-04-25T16:57:16.627Z,1.20
2019-04-25T16:59:45.789Z,3.13
2019-04-25T17:02:13.995Z,1.10
2019-04-25T17:04:42.165Z,3.40
2019-04-25T17:07:10.735Z,1.53
2019-04-25T17:09:38.916Z,2.67
2019-04-25T17:12:08.004Z,4.80
2019-04-25T17:14:53.849Z,2.70
2019-04-25T17:17:44.822Z,3.93
2019-04-25T17:20:30.730Z,1.53
2019-04-25T17:23:00.165Z,2.60
2019-04-25T17:25:28.245Z,2.97
2019-04-25T17:27:57.411Z,1.70
2019-04-25T17:30:27.435Z,3.30
2019-04-25T17:33:17.562Z,3.43
2019-04-25T17:36:09.933Z,3.40
2019-04-25T17:38:50.884Z,3.17
2019-04-25T17:41:19.151Z,3.63
2019-04-25T17:43:47.330Z,2.73
2019-04-25T17:46:17.546Z,1.90
2019-04-25T17:48:45.798Z,3.33
2019-04-25T17:51:13.894Z,2.47
2019-04-25T17:53:43.344Z,1.80
2019-04-25T17:56:11.312Z,2.97
2019-04-25T17:58:39.455Z,5.10
2019-04-25T18:01:08.372Z,4.40
2019-04-25T18:03:37.581Z,1.83
2019-04-25T18:06:05.579Z,2.60
2019-04-25T18:08:34.463Z,2.93
2019-04-25T18:11:05.046Z,4.07
2019-04-25T18:13:34.360Z,3.27
2019-04-25T18:16:26.179Z,3.07
2019-04-25T18:19:02.046Z,2.90
2019-04-25T18:21:30.112Z,2.00
2019-04-25T18:24:32.684Z,2.20
2019-04-25T18:27:05.372Z,2.50
2019-04-25T18:29:33.396Z,1.30
2019-04-25T18:32:01.537Z,3.67
2019-04-25T18:34:42.384Z,4.30
2019-04-25T18:37:20.857Z,1.30
2019-04-25T18:40:04.361Z,2.60
2019-04-25T18:42:57.379Z,3.70
2019-04-25T18:45:28.627Z,1.83
2019-04-25T18:47:56.924Z,1.90
2019-04-25T18:50:27.858Z,1.60
2019-04-25T18:53:30.008Z,4.07
2019-04-25T18:56:04.358Z,4.73
2019-04-25T18:58:54.611Z,2.60
2019-04-25T19:01:48.087Z,3.17
2019-04-25T19:04:32.605Z,1.87
2019-04-25T19:07:00.572Z,1.63
2019-04-25T19:09:30.155Z,2.80
2019-04-25T19:11:58.301Z,2.90
2019-04-25T19:14:27.276Z,1.87
2019-04-25T19:16:55.458Z,3.57
2019-04-25T19:19:23.616Z,4.33
2019-04-25T19:21:51.998Z,3.47
2019-04-25T19:24:20.110Z,3.10
2019-04-25T19:26:48.245Z,3.17
2019-04-25T19:29:16.379Z,1.40
2019-04-25T19:31:44.611Z,3.63
2019-04-25T19:34:12.668Z,1.87
2019-04-25T19:36:41.486Z,4.37
2019-04-25T19:39:10.574Z,2.43
2019-04-25T19:41:47.193Z,2.50
2019-04-25T19:44:17.753Z,2.20
2019-04-25T19:46:47.979Z,2.57
2019-04-25T19:49:16.840Z,2.47
2019-04-25T19:51:45.157Z,1.80
2019-04-25T19:54:13.306Z,2.93
2019-04-25T19:56:42.700Z,1.50
2019-04-25T19:59:11.197Z,4.30
2019-04-25T20:01:39.609Z,2.37
2019-04-25T20:04:20.236Z,1.77
2019-04-25T20:07:06.215Z,2.80
2019-04-25T20:09:53.253Z,2.73
2019-04-25T20:12:22.107Z,2.50
2019-04-25T20:14:51.283Z,2.20
2019-04-25T20:17:19.457Z,3.27
2019-04-25T20:19:47.703Z,8.40
2019-04-25T20:22:16.178Z,8.20
2019-04-25T20:24:45.273Z,2.20
2019-04-25T20:27:14.041Z,3.10
2019-04-25T20:29:42.177Z,1.43
2019-04-25T20:32:10.279Z,2.20
2019-04-25T20:34:38.446Z,7.03
2019-04-25T20:37:09.661Z,5.20
2019-04-25T20:39:37.872Z,3.27
2019-04-25T20:42:06.451Z,2.03
2019-04-25T20:44:36.588Z,3.77
2019-04-25T20:47:04.627Z,4.93
2019-04-25T20:49:33.030Z,2.07
2019-04-25T20:52:01.401Z,1.93
2019-04-25T20:54:29.456Z,4.47
2019-04-25T20:56:57.583Z,2.10
2019-04-25T20:59:25.664Z,2.53
2019-04-25T21:01:53.761Z,4.40
2019-04-25T21:04:40.152Z,3.17
2019-04-25T21:07:08.184Z,1.83
2019-04-25T21:09:36.251Z,1.40
2019-04-25T21:12:04.303Z,3.83
2019-04-25T21:14:51.318Z,1.40
2019-04-25T21:17:23.525Z,2.75
2019-04-25T21:19:52.715Z,1.30
2019-04-25T21:22:20.893Z,2.70
2019-04-25T21:24:49.496Z,3.23
2019-04-25T21:27:18.539Z,3.77
2019-04-25T21:29:46.615Z,2.40
2019-04-25T21:32:16.418Z,3.37
2019-04-25T21:34:44.669Z,3.30
2019-04-25T21:37:12.817Z,3.40
2019-04-25T21:40:00.928Z,4.30
2019-04-25T21:42:42.939Z,2.13
2019-04-25T21:45:11.465Z,3.63
2019-04-25T21:47:39.512Z,2.03
2019-04-25T21:50:07.894Z,5.80
2019-04-25T21:52:36.173Z,3.57
2019-04-25T21:55:05.150Z,3.93
2019-04-25T21:57:33.453Z,3.13
2019-04-25T22:00:06.728Z,2.37
2019-04-25T22:02:31.830Z,3.43
2019-04-25T22:05:00.558Z,4.40
2019-04-25T22:07:28.948Z,3.53
2019-04-25T22:09:57.337Z,5.10
2019-04-25T22:12:25.552Z,4.63
2019-04-25T22:14:53.694Z,1.83
2019-04-25T22:17:21.816Z,3.07
2019-04-25T22:19:50.226Z,3.67
2019-04-25T22:22:18.670Z,2.60
2019-04-25T22:24:47.025Z,5.10
2019-04-25T22:27:21.231Z,2.40
2019-04-25T22:29:57.154Z,2.03
2019-04-25T22:32:48.484Z,2.47
2019-04-25T22:35:21.902Z,2.23
2019-04-25T22:37:49.928Z,2.53
2019-04-25T22:40:18.016Z,3.00
2019-04-25T22:42:46.207Z,3.30
2019-04-25T22:45:14.399Z,2.73
2019-04-25T22:47:42.615Z,5.23
2019-04-25T22:50:10.872Z,3.52
2019-04-25T22:52:39.221Z,6.47
2019-04-25T22:55:08.243Z,4.53
2019-04-25T22:57:36.678Z,4.37
2019-04-25T23:00:05.304Z,2.70
2019-04-25T23:02:42.222Z,4.77
2019-04-25T23:05:27.265Z,2.43
2019-04-25T23:07:55.587Z,3.67
2019-04-25T23:10:24.304Z,4.83
2019-04-25T23:12:52.361Z,3.77
2019-04-25T23:15:20.398Z,3.17
2019-04-25T23:17:48.820Z,3.47
2019-04-25T23:20:17.245Z,2.90
2019-04-25T23:22:45.334Z,3.50
2019-04-25T23:25:15.266Z,2.73
2019-04-25T23:27:53.332Z,4.53
2019-04-25T23:30:24.156Z,5.13
2019-04-25T23:32:52.345Z,3.87
2019-04-25T23:35:28.422Z,2.83
2019-04-25T23:37:50.751Z,2.67
2019-04-25T23:40:19.039Z,4.83
2019-04-25T23:42:47.419Z,3.50
2019-04-25T23:45:16.528Z,6.27
2019-04-25T23:47:44.605Z,4.57
2019-04-25T23:50:12.843Z,5.50
2019-04-25T23:52:40.895Z,3.50
2019-04-25T23:55:09.414Z,5.13
2019-04-25T23:57:37.548Z,4.73
